sensor_id;sensor_type;location;lat;lon;timestamp;pressure;altitude;pressure_sealevel;temperature;humidity
16194;BME280;8204;53.582;10.080;2022-11-14T00:01:33;100853.31;;;10.70;100.00
16194;BME280;8204;53.582;10.080;2022-11-14T00:04:03;100853.13;;;10.63;100.00
16194;BME280;8204;53.582;10.080;2022-11-14T00:06:32;100850.34;;;10.65;100.00
16194;BME280;8204;53.582;10.080;2022-11-14T00:09:01;100853.41;;;10.60;100.00
16194;BME280;8204;53.582;10.080;2022-11-14T00:11:30;100858.16;;;10.57;100.00
16194;BME280;8204;53.582;10.080;2022-11-14T00:14:01;100857.50;;;10.55;100.00
16194;BME280;8204;53.582;10.080;2022-11-14T00:16:30;100855.34;;;10.50;100.00
16194;BME280;8204;53.582;10.080;2022-11-14T00:18:59;100845.03;;;10.49;100.00
16194;BME280;8204;53.582;10.080;2022-11-14T00:21:28;100848.28;;;10.51;100.00
16194;BME280;8204;53.582;10.080;2022-11-14T00:23:57;100852.41;;;10.53;100.00
16194;BME280;8204;53.582;10.080;2022-11-14T00:26:26;100835.06;;;10.52;100.00
16194;BME280;8204;53.582;10.080;2022-11-14T00:28:55;100841.78;;;10.55;100.00
16194;BME280;8204;53.582;10.080;2022-11-14T00:31:27;100849.59;;;10.47;100.00
16194;BME280;8204;53.582;10.080;2022-11-14T00:33:56;100842.88;;;10.44;100.00
16194;BME280;8204;53.582;10.080;2022-11-14T00:36:25;100848.28;;;10.43;100.00
16194;BME280;8204;53.582;10.080;2022-11-14T00:38:54;100836.97;;;10.42;100.00
16194;BME280;8204;53.582;10.080;2022-11-14T00:41:23;100840.09;;;10.46;100.00
16194;BME280;8204;53.582;10.080;2022-11-14T00:43:52;100839.41;;;10.44;100.00
16194;BME280;8204;53.582;10.080;2022-11-14T00:46:21;100838.78;;;10.42;100.00
16194;BME280;8204;53.582;10.080;2022-11-14T00:48:52;100845.44;;;10.36;100.00
16194;BME280;8204;53.582;10.080;2022-11-14T00:51:21;100838.38;;;10.29;100.00
16194;BME280;8204;53.582;10.080;2022-11-14T00:53:50;100828.84;;;10.28;100.00
16194;BME280;8204;53.582;10.080;2022-11-14T00:56:18;100813.50;;;10.33;100.00
16194;BME280;8204;53.582;10.080;2022-11-14T00:58:47;100814.13;;;10.27;100.00
16194;BME280;8204;53.582;10.080;2022-11-14T01:01:16;100811.66;;;10.25;100.00
16194;BME280;8204;53.582;10.080;2022-11-14T01:03:46;100805.91;;;10.22;100.00
16194;BME280;8204;53.582;10.080;2022-11-14T01:06:19;100791.84;;;10.23;100.00
16194;BME280;8204;53.582;10.080;2022-11-14T01:08:49;100790.19;;;10.22;100.00
16194;BME280;8204;53.582;10.080;2022-11-14T01:11:19;100784.97;;;10.22;100.00
16194;BME280;8204;53.582;10.080;2022-11-14T01:13:48;100768.91;;;10.25;100.00
16194;BME280;8204;53.582;10.080;2022-11-14T01:16:17;100786.13;;;10.27;100.00
16194;BME280;8204;53.582;10.080;2022-11-14T01:18:46;100787.94;;;10.27;100.00
16194;BME280;8204;53.582;10.080;2022-11-14T01:21:18;100785.31;;;10.27;100.00
16194;BME280;8204;53.582;10.080;2022-11-14T01:23:46;100785.16;;;10.28;100.00
16194;BME280;8204;53.582;10.080;2022-11-14T01:26:15;100793.31;;;10.25;100.00
16194;BME280;8204;53.582;10.080;2022-11-14T01:28:44;100791.84;;;10.23;100.00
16194;BME280;8204;53.582;10.080;2022-11-14T01:31:15;100781.66;;;10.20;100.00
16194;BME280;8204;53.582;10.080;2022-11-14T01:33:47;100768.75;;;10.18;100.00
16194;BME280;8204;53.582;10.080;2022-11-14T01:36:19;100760.03;;;10.18;100.00
16194;BME280;8204;53.582;10.080;2022-11-14T01:38:51;100770.50;;;10.10;100.00
16194;BME280;8204;53.582;10.080;2022-11-14T01:41:20;100754.47;;;10.13;100.00
16194;BME280;8204;53.582;10.080;2022-11-14T01:43:50;100757.75;;;10.15;100.00
16194;BME280;8204;53.582;10.080;2022-11-14T01:46:21;100747.56;;;10.12;100.00
16194;BME280;8204;53.582;10.080;2022-11-14T01:48:55;100754.78;;;10.10;100.00
16194;BME280;8204;53.582;10.080;2022-11-14T01:51:31;100743.94;;;10.05;100.00
16194;BME280;8204;53.582;10.080;2022-11-14T01:54:04;100722.38;;;10.11;100.00
16194;BME280;8204;53.582;10.080;2022-11-14T01:56:37;100719.41;;;10.06;100.00
16194;BME280;8204;53.582;10.080;2022-11-14T01:59:09;100719.91;;;10.10;100.00
16194;BME280;8204;53.582;10.080;2022-11-14T02:01:43;100707.00;;;10.08;100.00
16194;BME280;8204;53.582;10.080;2022-11-14T02:04:17;100701.41;;;10.03;100.00
16194;BME280;8204;53.582;10.080;2022-11-14T02:06:50;100712.69;;;10.04;100.00
16194;BME280;8204;53.582;10.080;2022-11-14T02:09:21;100703.69;;;10.06;100.00
16194;BME280;8204;53.582;10.080;2022-11-14T02:11:52;100709.91;;;10.05;100.00
16194;BME280;8204;53.582;10.080;2022-11-14T02:14:22;100699.09;;;10.00;100.00
16194;BME280;8204;53.582;10.080;2022-11-14T02:16:51;100688.44;;;10.02;100.00
16194;BME280;8204;53.582;10.080;2022-11-14T02:19:20;100682.06;;;10.04;100.00
16194;BME280;8204;53.582;10.080;2022-11-14T02:21:51;100684.06;;;10.02;100.00
16194;BME280;8204;53.582;10.080;2022-11-14T02:24:20;100658.03;;;10.01;100.00
16194;BME280;8204;53.582;10.080;2022-11-14T02:26:49;100667.50;;;10.02;100.00
16194;BME280;8204;53.582;10.080;2022-11-14T02:29:18;100678.81;;;10.02;100.00
16194;BME280;8204;53.582;10.080;2022-11-14T02:31:46;100667.03;;;10.06;100.00
16194;BME280;8204;53.582;10.080;2022-11-14T02:34:15;100661.66;;;10.08;100.00
16194;BME280;8204;53.582;10.080;2022-11-14T02:36:45;100680.13;;;10.06;100.00
16194;BME280;8204;53.582;10.080;2022-11-14T02:39:16;100665.06;;;10.00;100.00
16194;BME280;8204;53.582;10.080;2022-11-14T02:41:45;100671.13;;;10.01;100.00
16194;BME280;8204;53.582;10.080;2022-11-14T02:44:14;100655.91;;;10.04;100.00
16194;BME280;8204;53.582;10.080;2022-11-14T02:46:43;100660.66;;;10.01;100.00
16194;BME280;8204;53.582;10.080;2022-11-14T02:49:11;100655.44;;;10.01;100.00
16194;BME280;8204;53.582;10.080;2022-11-14T02:51:40;100656.22;;;10.01;100.00
16194;BME280;8204;53.582;10.080;2022-11-14T02:54:09;100640.06;;;10.06;100.00
16194;BME280;8204;53.582;10.080;2022-11-14T02:56:41;100639.56;;;10.02;100.00
16194;BME280;8204;53.582;10.080;2022-11-14T02:59:10;100640.53;;;10.01;100.00
16194;BME280;8204;53.582;10.080;2022-11-14T03:01:38;100638.25;;;10.06;100.00
16194;BME280;8204;53.582;10.080;2022-11-14T03:04:07;100639.38;;;10.04;100.00
16194;BME280;8204;53.582;10.080;2022-11-14T03:06:36;100630.22;;;10.08;100.00
16194;BME280;8204;53.582;10.080;2022-11-14T03:09:05;100626.81;;;10.07;100.00
16194;BME280;8204;53.582;10.080;2022-11-14T03:11:33;100621.88;;;10.04;100.00
16194;BME280;8204;53.582;10.080;2022-11-14T03:14:05;100619.25;;;10.04;100.00
16194;BME280;8204;53.582;10.080;2022-11-14T03:16:34;100617.47;;;10.05;100.00
16194;BME280;8204;53.582;10.080;2022-11-14T03:19:03;100608.66;;;10.06;100.00
16194;BME280;8204;53.582;10.080;2022-11-14T03:21:32;100604.19;;;9.98;100.00
16194;BME280;8204;53.582;10.080;2022-11-14T03:24:01;100592.91;;;9.98;100.00
16194;BME280;8204;53.582;10.080;2022-11-14T03:26:29;100579.66;;;9.99;100.00
16194;BME280;8204;53.582;10.080;2022-11-14T03:28:58;100577.88;;;10.00;100.00
16194;BME280;8204;53.582;10.080;2022-11-14T03:31:30;100572.47;;;10.01;100.00
16194;BME280;8204;53.582;10.080;2022-11-14T03:33:59;100573.63;;;9.99;100.00
16194;BME280;8204;53.582;10.080;2022-11-14T03:36:27;100589.81;;;10.02;100.00
16194;BME280;8204;53.582;10.080;2022-11-14T03:38:56;100604.47;;;9.95;100.00
16194;BME280;8204;53.582;10.080;2022-11-14T03:41:25;100595.97;;;9.93;100.00
16194;BME280;8204;53.582;10.080;2022-11-14T03:43:54;100585.19;;;9.96;100.00
16194;BME280;8204;53.582;10.080;2022-11-14T03:46:23;100583.84;;;9.92;100.00
16194;BME280;8204;53.582;10.080;2022-11-14T03:48:54;100568.97;;;9.93;100.00
16194;BME280;8204;53.582;10.080;2022-11-14T03:51:23;100570.28;;;9.97;100.00
16194;BME280;8204;53.582;10.080;2022-11-14T03:53:52;100567.53;;;9.98;100.00
16194;BME280;8204;53.582;10.080;2022-11-14T03:56:20;100578.31;;;9.95;100.00
16194;BME280;8204;53.582;10.080;2022-11-14T03:58:49;100571.44;;;9.94;100.00
16194;BME280;8204;53.582;10.080;2022-11-14T04:01:18;100577.47;;;9.95;100.00
16194;BME280;8204;53.582;10.080;2022-11-14T04:03:47;100577.19;;;9.98;100.00
16194;BME280;8204;53.582;10.080;2022-11-14T04:06:18;100588.97;;;10.02;100.00
16194;BME280;8204;53.582;10.080;2022-11-14T04:08:47;100579.44;;;9.93;100.00
16194;BME280;8204;53.582;10.080;2022-11-14T04:11:16;100580.25;;;9.93;100.00
16194;BME280;8204;53.582;10.080;2022-11-14T04:13:45;100571.22;;;9.88;100.00
16194;BME280;8204;53.582;10.080;2022-11-14T04:16:14;100561.59;;;9.88;100.00
16194;BME280;8204;53.582;10.080;2022-11-14T04:18:42;100560.47;;;9.91;100.00
16194;BME280;8204;53.582;10.080;2022-11-14T04:21:11;100565.69;;;9.91;100.00
16194;BME280;8204;53.582;10.080;2022-11-14T04:23:43;100566.84;;;9.88;100.00
16194;BME280;8204;53.582;10.080;2022-11-14T04:26:12;100580.09;;;9.87;100.00
16194;BME280;8204;53.582;10.080;2022-11-14T04:28:41;100580.38;;;9.84;100.00
16194;BME280;8204;53.582;10.080;2022-11-14T04:31:10;100572.03;;;9.80;100.00
16194;BME280;8204;53.582;10.080;2022-11-14T04:33:39;100572.88;;;9.81;100.00
16194;BME280;8204;53.582;10.080;2022-11-14T04:36:07;100562.19;;;9.74;100.00
16194;BME280;8204;53.582;10.080;2022-11-14T04:38:36;100566.28;;;9.77;100.00
16194;BME280;8204;53.582;10.080;2022-11-14T04:41:08;100555.66;;;9.78;100.00
16194;BME280;8204;53.582;10.080;2022-11-14T04:43:36;100547.00;;;9.78;100.00
16194;BME280;8204;53.582;10.080;2022-11-14T04:46:05;100543.59;;;9.77;100.00
16194;BME280;8204;53.582;10.080;2022-11-14T04:48:34;100545.03;;;9.72;100.00
16194;BME280;8204;53.582;10.080;2022-11-14T04:51:03;100546.97;;;9.70;100.00
16194;BME280;8204;53.582;10.080;2022-11-14T04:53:32;100555.31;;;9.73;100.00
16194;BME280;8204;53.582;10.080;2022-11-14T04:56:01;100546.66;;;9.73;100.00
16194;BME280;8204;53.582;10.080;2022-11-14T04:58:32;100549.59;;;9.70;100.00
16194;BME280;8204;53.582;10.080;2022-11-14T05:01:06;100532.09;;;9.70;100.00
16194;BME280;8204;53.582;10.080;2022-11-14T05:03:35;100528.03;;;9.76;100.00
16194;BME280;8204;53.582;10.080;2022-11-14T05:06:05;100529.81;;;9.75;100.00
16194;BME280;8204;53.582;10.080;2022-11-14T05:08:33;100528.03;;;9.76;100.00
16194;BME280;8204;53.582;10.080;2022-11-14T05:11:02;100530.34;;;9.79;100.00
16194;BME280;8204;53.582;10.080;2022-11-14T05:13:34;100533.25;;;9.76;100.00
16194;BME280;8204;53.582;10.080;2022-11-14T05:16:03;100531.47;;;9.76;100.00
16194;BME280;8204;53.582;10.080;2022-11-14T05:18:31;100533.63;;;9.81;100.00
16194;BME280;8204;53.582;10.080;2022-11-14T05:21:00;100528.19;;;9.74;100.00
16194;BME280;8204;53.582;10.080;2022-11-14T05:23:29;100518.84;;;9.72;100.00
16194;BME280;8204;53.582;10.080;2022-11-14T05:25:59;100490.88;;;9.72;100.00
16194;BME280;8204;53.582;10.080;2022-11-14T05:28:28;100500.38;;;9.73;100.00
16194;BME280;8204;53.582;10.080;2022-11-14T05:31:05;100511.19;;;9.70;100.00
16194;BME280;8204;53.582;10.080;2022-11-14T05:33:34;100520.81;;;9.70;100.00
16194;BME280;8204;53.582;10.080;2022-11-14T05:36:04;100499.38;;;9.66;100.00
16194;BME280;8204;53.582;10.080;2022-11-14T05:38:33;100516.88;;;9.66;100.00
16194;BME280;8204;53.582;10.080;2022-11-14T05:41:04;100504.31;;;9.69;100.00
16194;BME280;8204;53.582;10.080;2022-11-14T05:43:33;100507.56;;;9.63;100.00
16194;BME280;8204;53.582;10.080;2022-11-14T05:46:09;100494.78;;;9.60;100.00
16194;BME280;8204;53.582;10.080;2022-11-14T05:48:40;100492.84;;;9.62;100.00
16194;BME280;8204;53.582;10.080;2022-11-14T05:51:10;100486.25;;;9.58;100.00
16194;BME280;8204;53.582;10.080;2022-11-14T05:53:40;100484.66;;;9.57;100.00
16194;BME280;8204;53.582;10.080;2022-11-14T05:56:10;100482.53;;;9.61;100.00
16194;BME280;8204;53.582;10.080;2022-11-14T05:58:40;100497.09;;;9.63;100.00
16194;BME280;8204;53.582;10.080;2022-11-14T06:01:13;100500.00;;;9.60;100.00
16194;BME280;8204;53.582;10.080;2022-11-14T06:03:44;100498.38;;;9.59;100.00
16194;BME280;8204;53.582;10.080;2022-11-14T06:06:15;100494.78;;;9.60;100.00
16194;BME280;8204;53.582;10.080;2022-11-14T06:08:44;100501.63;;;9.53;100.00
16194;BME280;8204;53.582;10.080;2022-11-14T06:11:16;100495.25;;;9.56;100.00
16194;BME280;8204;53.582;10.080;2022-11-14T06:13:45;100496.59;;;9.60;100.00
16194;BME280;8204;53.582;10.080;2022-11-14T06:16:18;100502.28;;;9.55;100.00
16194;BME280;8204;53.582;10.080;2022-11-14T06:18:47;100510.44;;;9.52;100.00
16194;BME280;8204;53.582;10.080;2022-11-14T06:21:17;100506.22;;;9.51;100.00
16194;BME280;8204;53.582;10.080;2022-11-14T06:23:48;100521.53;;;9.46;100.00
16194;BME280;8204;53.582;10.080;2022-11-14T06:26:20;100509.75;;;9.43;100.00
16194;BME280;8204;53.582;10.080;2022-11-14T06:28:50;100510.22;;;9.38;100.00
16194;BME280;8204;53.582;10.080;2022-11-14T06:31:22;100517.72;;;9.33;100.00
16194;BME280;8204;53.582;10.080;2022-11-14T06:33:51;100499.59;;;9.32;100.00
16194;BME280;8204;53.582;10.080;2022-11-14T06:36:19;100483.91;;;9.32;100.00
16194;BME280;8204;53.582;10.080;2022-11-14T06:38:48;100481.78;;;9.35;100.00
16194;BME280;8204;53.582;10.080;2022-11-14T06:41:18;100487.16;;;9.34;100.00
16194;BME280;8204;53.582;10.080;2022-11-14T06:43:49;100479.00;;;9.37;100.00
16194;BME280;8204;53.582;10.080;2022-11-14T06:46:22;100477.19;;;9.37;100.00
16194;BME280;8204;53.582;10.080;2022-11-14T06:48:51;100477.53;;;9.34;100.00
16194;BME280;8204;53.582;10.080;2022-11-14T06:51:19;100475.72;;;9.35;100.00
16194;BME280;8204;53.582;10.080;2022-11-14T06:53:48;100472.47;;;9.41;100.00
16194;BME280;8204;53.582;10.080;2022-11-14T06:56:17;100475.09;;;9.41;100.00
16194;BME280;8204;53.582;10.080;2022-11-14T06:58:48;100474.94;;;9.42;100.00
16194;BME280;8204;53.582;10.080;2022-11-14T07:01:18;100473.66;;;9.46;100.00
16194;BME280;8204;53.582;10.080;2022-11-14T07:03:51;100478.22;;;9.44;100.00
16194;BME280;8204;53.582;10.080;2022-11-14T07:06:22;100478.03;;;9.45;100.00
16194;BME280;8204;53.582;10.080;2022-11-14T07:08:52;100485.59;;;9.48;100.00
16194;BME280;8204;53.582;10.080;2022-11-14T07:11:23;100500.47;;;9.48;100.00
16194;BME280;8204;53.582;10.080;2022-11-14T07:13:55;100497.47;;;9.43;100.00
16194;BME280;8204;53.582;10.080;2022-11-14T07:16:25;100486.88;;;9.44;100.00
16194;BME280;8204;53.582;10.080;2022-11-14T07:18:57;100491.63;;;9.41;100.00
16194;BME280;8204;53.582;10.080;2022-11-14T07:21:28;100484.28;;;9.44;100.00
16194;BME280;8204;53.582;10.080;2022-11-14T07:23:57;100486.22;;;9.43;100.00
16194;BME280;8204;53.582;10.080;2022-11-14T07:26:26;100488.84;;;9.43;100.00
16194;BME280;8204;53.582;10.080;2022-11-14T07:28:54;100499.75;;;9.38;100.00
16194;BME280;8204;53.582;10.080;2022-11-14T07:31:23;100494.22;;;9.41;100.00
16194;BME280;8204;53.582;10.080;2022-11-14T07:33:53;100503.22;;;9.39;100.00
16194;BME280;8204;53.582;10.080;2022-11-14T07:36:24;100503.84;;;9.41;100.00
16194;BME280;8204;53.582;10.080;2022-11-14T07:38:53;100514.63;;;9.38;100.00
16194;BME280;8204;53.582;10.080;2022-11-14T07:41:22;100494.72;;;9.44;100.00
16194;BME280;8204;53.582;10.080;2022-11-14T07:43:51;100506.34;;;9.42;100.00
16194;BME280;8204;53.582;10.080;2022-11-14T07:46:19;100504.34;;;9.44;100.00
16194;BME280;8204;53.582;10.080;2022-11-14T07:48:48;100507.13;;;9.43;100.00
16194;BME280;8204;53.582;10.080;2022-11-14T07:51:18;100492.63;;;9.48;100.00
16194;BME280;8204;53.582;10.080;2022-11-14T07:53:50;100498.00;;;9.46;100.00
16194;BME280;8204;53.582;10.080;2022-11-14T07:56:19;100512.72;;;9.47;100.00
16194;BME280;8204;53.582;10.080;2022-11-14T07:58:50;100516.97;;;9.48;100.00
16194;BME280;8204;53.582;10.080;2022-11-14T08:01:19;100515.50;;;9.46;100.00
16194;BME280;8204;53.582;10.080;2022-11-14T08:03:48;100500.31;;;9.49;100.00
16194;BME280;8204;53.582;10.080;2022-11-14T08:06:17;100496.38;;;9.53;100.00
16194;BME280;8204;53.582;10.080;2022-11-14T08:08:46;100505.25;;;9.60;100.00
16194;BME280;8204;53.582;10.080;2022-11-14T08:11:17;100503.97;;;9.64;100.00
16194;BME280;8204;53.582;10.080;2022-11-14T08:14:07;100524.72;;;9.66;100.00
16194;BME280;8204;53.582;10.080;2022-11-14T08:16:35;100523.09;;;9.65;100.00
16194;BME280;8204;53.582;10.080;2022-11-14T08:19:04;100512.41;;;9.58;100.00
16194;BME280;8204;53.582;10.080;2022-11-14T08:21:33;100500.00;;;9.60;100.00
16194;BME280;8204;53.582;10.080;2022-11-14T08:24:02;100493.16;;;9.67;100.00
16194;BME280;8204;53.582;10.080;2022-11-14T08:26:33;100508.53;;;9.62;100.00
16194;BME280;8204;53.582;10.080;2022-11-14T08:29:02;100524.69;;;9.58;100.00
16194;BME280;8204;53.582;10.080;2022-11-14T08:31:31;100530.09;;;9.56;100.00
16194;BME280;8204;53.582;10.080;2022-11-14T08:33:59;100529.06;;;9.49;100.00
16194;BME280;8204;53.582;10.080;2022-11-14T08:36:28;100520.03;;;9.44;100.00
16194;BME280;8204;53.582;10.080;2022-11-14T08:38:57;100516.63;;;9.43;100.00
16194;BME280;8204;53.582;10.080;2022-11-14T08:41:26;100508.50;;;9.54;100.00
16194;BME280;8204;53.582;10.080;2022-11-14T08:43:57;100510.31;;;9.54;100.00
16194;BME280;8204;53.582;10.080;2022-11-14T08:46:26;100519.63;;;9.56;100.00
16194;BME280;8204;53.582;10.080;2022-11-14T08:48:54;100518.66;;;9.57;100.00
16194;BME280;8204;53.582;10.080;2022-11-14T08:51:23;100530.38;;;9.53;100.00
16194;BME280;8204;53.582;10.080;2022-11-14T08:53:52;100538.09;;;9.55;100.00
16194;BME280;8204;53.582;10.080;2022-11-14T08:56:21;100533.84;;;9.54;100.00
16194;BME280;8204;53.582;10.080;2022-11-14T08:58:50;100538.56;;;9.50;100.00
16194;BME280;8204;53.582;10.080;2022-11-14T09:01:22;100534.31;;;9.49;100.00
16194;BME280;8204;53.582;10.080;2022-11-14T09:03:51;100515.66;;;9.44;100.00
16194;BME280;8204;53.582;10.080;2022-11-14T09:06:19;100492.63;;;9.48;100.00
16194;BME280;8204;53.582;10.080;2022-11-14T09:08:48;100489.00;;;9.49;100.00
16194;BME280;8204;53.582;10.080;2022-11-14T09:11:17;100491.28;;;9.44;100.00
16194;BME280;8204;53.582;10.080;2022-11-14T09:13:46;100475.13;;;9.48;100.00
16194;BME280;8204;53.582;10.080;2022-11-14T09:16:15;100473.00;;;9.52;100.00
16194;BME280;8204;53.582;10.080;2022-11-14T09:18:46;100488.69;;;9.52;100.00
16194;BME280;8204;53.582;10.080;2022-11-14T09:21:15;100500.81;;;9.53;100.00
16194;BME280;8204;53.582;10.080;2022-11-14T09:23:45;100496.03;;;9.48;100.00
16194;BME280;8204;53.582;10.080;2022-11-14T09:26:14;100485.88;;;9.45;100.00
16194;BME280;8204;53.582;10.080;2022-11-14T09:28:43;100481.81;;;9.51;100.00
16194;BME280;8204;53.582;10.080;2022-11-14T09:31:12;100480.19;;;9.50;100.00
16194;BME280;8204;53.582;10.080;2022-11-14T09:33:41;100484.28;;;9.52;100.00
16194;BME280;8204;53.582;10.080;2022-11-14T09:36:13;100470.56;;;9.58;100.00
16194;BME280;8204;53.582;10.080;2022-11-14T09:38:44;100459.81;;;9.61;100.00
16194;BME280;8204;53.582;10.080;2022-11-14T09:41:24;100475.50;;;9.61;100.00
16194;BME280;8204;53.582;10.080;2022-11-14T11:01:35;100492.69;;;10.45;100.00
16194;BME280;8204;53.582;10.080;2022-11-14T11:04:20;100487.44;;;10.53;100.00
16194;BME280;8204;53.582;10.080;2022-11-14T11:06:52;100502.66;;;10.57;100.00
16194;BME280;8204;53.582;10.080;2022-11-14T11:09:23;100492.19;;;10.65;100.00
16194;BME280;8204;53.582;10.080;2022-11-14T11:12:06;100507.09;;;10.73;100.00
16194;BME280;8204;53.582;10.080;2022-11-14T11:14:35;100534.94;;;10.74;100.00
16194;BME280;8204;53.582;10.080;2022-11-14T11:17:15;100530.31;;;10.84;100.00
16194;BME280;8204;53.582;10.080;2022-11-14T11:19:44;100538.00;;;11.01;100.00
16194;BME280;8204;53.582;10.080;2022-11-14T11:22:27;100552.88;;;11.16;100.00
16194;BME280;8204;53.582;10.080;2022-11-14T11:24:56;100583.69;;;11.22;100.00
16194;BME280;8204;53.582;10.080;2022-11-14T11:27:27;100581.34;;;11.43;100.00
16194;BME280;8204;53.582;10.080;2022-11-14T11:30:11;100607.59;;;11.59;100.00
16194;BME280;8204;53.582;10.080;2022-11-14T11:32:47;100656.78;;;11.65;100.00
16194;BME280;8204;53.582;10.080;2022-11-14T11:35:16;100655.75;;;11.82;100.00
16194;BME280;8204;53.582;10.080;2022-11-14T11:37:48;100669.03;;;11.96;100.00
16194;BME280;8204;53.582;10.080;2022-11-14T11:40:23;100689.84;;;12.06;100.00
16194;BME280;8204;53.582;10.080;2022-11-14T11:42:58;100722.47;;;12.11;100.00
16194;BME280;8204;53.582;10.080;2022-11-14T11:45:31;100733.13;;;12.18;100.00
16194;BME280;8204;53.582;10.080;2022-11-14T11:48:09;100741.63;;;12.28;100.00
16194;BME280;8204;53.582;10.080;2022-11-14T11:50:41;100740.41;;;12.46;100.00
16194;BME280;8204;53.582;10.080;2022-11-14T11:53:16;100749.56;;;12.58;100.00
16194;BME280;8204;53.582;10.080;2022-11-14T11:55:48;100770.38;;;12.67;100.00
16194;BME280;8204;53.582;10.080;2022-11-14T11:58:21;100789.09;;;12.72;100.00
16194;BME280;8204;53.582;10.080;2022-11-14T12:00:54;100768.22;;;12.79;100.00
16194;BME280;8204;53.582;10.080;2022-11-14T12:03:26;100774.22;;;12.95;100.00
16194;BME280;8204;53.582;10.080;2022-11-14T12:06:04;100798.69;;;13.04;100.00
16194;BME280;8204;53.582;10.080;2022-11-14T12:08:38;100845.13;;;13.19;100.00
16194;BME280;8204;53.582;10.080;2022-11-14T12:11:13;100898.38;;;13.29;100.00
16194;BME280;8204;53.582;10.080;2022-11-14T12:14:09;100907.22;;;13.36;100.00
16194;BME280;8204;53.582;10.080;2022-11-14T12:17:07;100924.97;;;13.42;100.00
16194;BME280;8204;53.582;10.080;2022-11-14T12:23:03;100946.63;;;13.44;100.00
16194;BME280;8204;53.582;10.080;2022-11-14T12:25:45;100954.53;;;13.44;100.00
16194;BME280;8204;53.582;10.080;2022-11-14T12:28:30;100958.53;;;13.40;100.00
16194;BME280;8204;53.582;10.080;2022-11-14T12:31:04;100960.50;;;13.38;100.00
16194;BME280;8204;53.582;10.080;2022-11-14T12:33:43;100934.84;;;13.32;100.00
16194;BME280;8204;53.582;10.080;2022-11-14T12:36:14;100923.31;;;13.41;100.00
16194;BME280;8204;53.582;10.080;2022-11-14T12:38:49;100926.75;;;13.41;100.00
16194;BME280;8204;53.582;10.080;2022-11-14T12:41:22;100937.47;;;13.40;100.00
16194;BME280;8204;53.582;10.080;2022-11-14T12:43:52;100942.22;;;13.44;100.00
16194;BME280;8204;53.582;10.080;2022-11-14T12:46:21;100933.97;;;13.47;100.00
16194;BME280;8204;53.582;10.080;2022-11-14T12:48:50;100913.03;;;13.54;100.00
16194;BME280;8204;53.582;10.080;2022-11-14T12:51:47;100911.06;;;13.56;100.00
16194;BME280;8204;53.582;10.080;2022-11-14T12:54:43;100932.41;;;13.61;100.00
16194;BME280;8204;53.582;10.080;2022-11-14T12:57:21;100935.84;;;13.61;100.00
16194;BME280;8204;53.582;10.080;2022-11-14T13:00:08;100927.13;;;13.69;100.00
16194;BME280;8204;53.582;10.080;2022-11-14T13:02:56;100940.91;;;13.71;100.00
16194;BME280;8204;53.582;10.080;2022-11-14T13:05:47;100921.84;;;13.69;100.00
16194;BME280;8204;53.582;10.080;2022-11-14T13:08:48;100918.66;;;13.73;100.00
16194;BME280;8204;53.582;10.080;2022-11-14T13:11:39;100927.13;;;13.91;100.00
16194;BME280;8204;53.582;10.080;2022-11-14T13:14:21;100933.69;;;13.95;100.00
16194;BME280;8204;53.582;10.080;2022-11-14T13:17:21;100947.78;;;14.02;100.00
16194;BME280;8204;53.582;10.080;2022-11-14T13:20:24;100946.44;;;14.06;100.00
16194;BME280;8204;53.582;10.080;2022-11-14T13:23:52;100945.44;;;14.07;100.00
16194;BME280;8204;53.582;10.080;2022-11-14T13:26:43;100952.25;;;14.01;100.00
16194;BME280;8204;53.582;10.080;2022-11-14T13:35:15;100941.78;;;14.16;100.00
16194;BME280;8204;53.582;10.080;2022-11-14T13:37:58;100959.72;;;14.20;100.00
16194;BME280;8204;53.582;10.080;2022-11-14T13:40:35;100951.97;;;14.19;100.00
16194;BME280;8204;53.582;10.080;2022-11-14T13:43:17;100950.69;;;14.15;100.00
16194;BME280;8204;53.582;10.080;2022-11-14T13:45:59;100963.22;;;14.13;100.00
16194;BME280;8204;53.582;10.080;2022-11-14T13:48:50;100960.56;;;14.13;100.00
16194;BME280;8204;53.582;10.080;2022-11-14T13:51:25;100979.03;;;14.13;100.00
16194;BME280;8204;53.582;10.080;2022-11-14T13:53:55;100974.22;;;14.16;100.00
16194;BME280;8204;53.582;10.080;2022-11-14T13:56:33;100978.50;;;14.17;100.00
16194;BME280;8204;53.582;10.080;2022-11-14T13:59:25;100960.34;;;14.22;100.00
16194;BME280;8204;53.582;10.080;2022-11-14T14:02:10;100965.31;;;14.17;100.00
16194;BME280;8204;53.582;10.080;2022-11-14T14:04:50;100954.50;;;14.12;100.00
16194;BME280;8204;53.582;10.080;2022-11-14T14:07:26;100957.44;;;14.09;100.00
16194;BME280;8204;53.582;10.080;2022-11-14T14:10:05;100958.63;;;14.07;100.00
16194;BME280;8204;53.582;10.080;2022-11-14T14:12:49;100947.13;;;14.00;100.00
16194;BME280;8204;53.582;10.080;2022-11-14T14:15:32;100937.78;;;13.97;100.00
16194;BME280;8204;53.582;10.080;2022-11-14T14:18:09;100935.19;;;13.89;100.00
16194;BME280;8204;53.582;10.080;2022-11-14T14:20:45;100929.75;;;13.91;100.00
16194;BME280;8204;53.582;10.080;2022-11-14T14:23:23;100931.28;;;13.85;100.00
16194;BME280;8204;53.582;10.080;2022-11-14T14:26:00;100927.50;;;13.80;100.00
16194;BME280;8204;53.582;10.080;2022-11-14T14:28:38;100917.16;;;13.79;100.00
16194;BME280;8204;53.582;10.080;2022-11-14T14:31:15;100920.69;;;13.71;100.00
16194;BME280;8204;53.582;10.080;2022-11-14T14:33:46;100910.69;;;13.59;100.00
16194;BME280;8204;53.582;10.080;2022-11-14T14:36:20;100896.94;;;13.49;100.00
16194;BME280;8204;53.582;10.080;2022-11-14T14:38:51;100891.91;;;13.39;100.00